Aérodrome :
LOGIN :

S'inscrire | Disclaimer

   EN    FR    IT 

 










Légende :    VFR   VFR Marginal   IFR   IFR Intensif   IFR Très Intensif
Visi : 
Plafond : 
>= 8 km
>= 3000ft
5 à 8 km
1000 à 3000 ft
1500m à 5 km
500 à 1000 ft
800 à 1500m
200 à 500 ft
< 800m
< 200 ft
Symboles :   Orages  Brouillard  Fortes neiges  Fortes précipitations  Vent > 20 kt
SIGMETs :   Divers  Orages  Givrage  Turbulence  Onde Orograph.  Cendres Volcan.







- Altitude de l'aérodrome : 15 ft
- Code IATA : FCO


LIRF - Roma Leonardo da Vinci Fiumicino

DERNIER METAR :
  • 200850Z 10006KT 9999 -DZ SCT030 BKN045 09/07 Q1013 NOSIG

METARs EXPIRÉS :
  • 200820Z 11007KT 9999 -DZ SCT030 BKN045 08/06 Q1013 NOSIG
  • 200750Z 11007KT 9999 -DZ SCT030 BKN045 08/06 Q1013 NOSIG
  • 200720Z 12009KT 9999 -RA SCT030 BKN045 08/06 Q1013 TEMPO SHRA
  • 200650Z 12010KT 9999 -RA SCT030 BKN045 08/06 Q1013 TEMPO SHRA
  • 200620Z 13009KT 9999 -DZ SCT030 BKN045 08/06 Q1013 REDZ NOSIG

TAF COR TAF LIRF
Valide du 20 à 06h jusqu'au 21 à 12h UTC


200648Z 2006/2112 13012KT 9999 BKN040
TEMPO 2006/2009 TSRA
TEMPO 2009/2013 RA
BECMG 2010/2012 06012KT
Pas de NOTAMs connus pour ce terrain.



MET'MAP, la Météo Aéronautique d'un coup d'oeil ! - Copyright ORBIFLY Décembre 2007 - Disclaimer

ORBIFLY MET'MAP TEAM :

Programmation & Développement : Alexandra Zaïnal
Conception & Développement : Baudouin d'Aumeries
Co-Programmation & Développement : Marc-Olivier Méhu
Soutien technique & logistique : Manuel Goepfert

Contact : metmap@orbifly.com




SOURCES & CREDITS :

   NOAA